createdAt,value
2022-08-17T00:01:37.885Z,61.30
2022-08-17T00:04:20.683Z,61.70
2022-08-17T00:06:49.332Z,62.00
2022-08-17T00:09:18.258Z,61.90
2022-08-17T00:12:34.923Z,61.70
2022-08-17T00:14:36.101Z,61.80
2022-08-17T00:17:04.730Z,61.70
2022-08-17T00:19:32.949Z,62.00
2022-08-17T00:22:32.892Z,62.60
2022-08-17T00:24:50.224Z,62.20
2022-08-17T00:27:17.554Z,62.20
2022-08-17T00:29:45.881Z,62.40
2022-08-17T00:33:13.959Z,62.70
2022-08-17T00:35:08.300Z,62.70
2022-08-17T00:37:35.313Z,62.50
2022-08-17T00:40:03.070Z,62.50
2022-08-17T00:42:31.255Z,62.40
2022-08-17T00:44:59.976Z,62.40
2022-08-17T00:47:26.957Z,62.40
2022-08-17T00:49:54.117Z,62.20
2022-08-17T00:52:25.039Z,62.10
2022-08-17T00:54:55.147Z,62.10
2022-08-17T00:57:29.981Z,62.00
2022-08-17T01:00:09.613Z,62.10
2022-08-17T01:02:42.044Z,62.20
2022-08-17T01:05:19.560Z,62.00
2022-08-17T01:07:50.842Z,62.00
2022-08-17T01:10:57.405Z,62.00
2022-08-17T01:13:11.227Z,61.90
2022-08-17T01:15:41.408Z,62.30
2022-08-17T01:18:14.741Z,62.30
2022-08-17T01:20:48.423Z,62.50
2022-08-17T01:23:20.509Z,62.60
2022-08-17T01:25:54.364Z,62.80
2022-08-17T01:28:53.073Z,62.70
2022-08-17T01:31:12.508Z,62.90
2022-08-17T01:33:39.566Z,62.30
2022-08-17T01:36:08.291Z,62.30
2022-08-17T01:38:37.311Z,62.40
2022-08-17T01:41:10.620Z,62.50
2022-08-17T01:43:47.426Z,62.40
2022-08-17T01:46:24.227Z,62.40
2022-08-17T01:48:51.525Z,62.40
2022-08-17T01:51:19.162Z,62.60
2022-08-17T01:53:57.441Z,62.20
2022-08-17T01:56:25.693Z,62.20
2022-08-17T01:58:52.961Z,62.40
2022-08-17T02:01:23.090Z,62.40
2022-08-17T02:03:53.327Z,62.50
2022-08-17T02:06:30.278Z,62.40
2022-08-17T02:09:02.435Z,62.50
2022-08-17T02:14:33.408Z,62.90
2022-08-17T02:17:00.525Z,63.00
2022-08-17T02:19:27.408Z,62.80
2022-08-17T02:21:54.707Z,63.00
2022-08-17T02:24:59.568Z,63.20
2022-08-17T02:27:16.406Z,63.40
2022-08-17T02:29:43.304Z,63.50
2022-08-17T02:32:20.987Z,63.60
2022-08-17T02:34:56.708Z,63.50
2022-08-17T02:37:24.265Z,63.70
2022-08-17T02:39:51.307Z,63.80
2022-08-17T02:42:18.477Z,64.40
2022-08-17T02:44:45.542Z,64.50
2022-08-17T02:47:12.751Z,64.90
2022-08-17T02:49:39.713Z,64.90
2022-08-17T02:52:07.829Z,64.70
2022-08-17T02:54:39.974Z,64.90
2022-08-17T02:57:10.127Z,64.00
2022-08-17T02:59:46.788Z,63.90
2022-08-17T03:02:16.032Z,64.00
2022-08-17T03:04:42.912Z,64.10
2022-08-17T03:07:09.976Z,64.00
2022-08-17T03:09:36.842Z,64.00
2022-08-17T03:12:09.066Z,64.00
2022-08-17T03:14:41.910Z,64.10
2022-08-17T03:17:10.240Z,64.20
2022-08-17T03:19:41.575Z,64.40
2022-08-17T03:22:37.160Z,64.30
2022-08-17T03:24:58.214Z,64.30
2022-08-17T03:27:25.205Z,64.50
2022-08-17T03:29:52.253Z,64.50
2022-08-17T03:32:20.692Z,64.40
2022-08-17T03:34:48.008Z,64.40
2022-08-17T03:37:15.065Z,64.60
2022-08-17T03:39:42.825Z,64.60
2022-08-17T03:42:31.859Z,64.60
2022-08-17T03:45:00.688Z,64.60
2022-08-17T03:47:46.893Z,64.60
2022-08-17T03:50:33.736Z,64.50
2022-08-17T03:53:23.503Z,64.50
2022-08-17T03:56:09.514Z,64.70
2022-08-17T03:58:37.645Z,64.60
2022-08-17T04:01:07.865Z,64.80
2022-08-17T04:03:35.272Z,64.80
2022-08-17T04:06:02.329Z,64.80
2022-08-17T04:08:30.352Z,64.90
2022-08-17T04:10:57.857Z,65.00
2022-08-17T04:13:25.537Z,65.10
2022-08-17T04:15:52.792Z,65.10
2022-08-17T04:18:20.077Z,66.00
2022-08-17T04:20:47.110Z,65.80
2022-08-17T04:23:17.606Z,65.30
2022-08-17T04:25:49.347Z,65.50
2022-08-17T04:28:17.934Z,65.60
2022-08-17T04:30:46.773Z,65.80
2022-08-17T04:33:20.061Z,66.00
2022-08-17T04:35:53.968Z,66.00
2022-08-17T04:38:24.559Z,66.10
2022-08-17T04:41:11.007Z,66.60
2022-08-17T04:43:40.161Z,66.80
2022-08-17T04:46:09.751Z,67.00
2022-08-17T04:48:40.869Z,67.30
2022-08-17T04:51:13.507Z,67.40
2022-08-17T04:53:44.439Z,67.90
2022-08-17T04:56:17.017Z,67.80
2022-08-17T04:58:47.987Z,67.90
2022-08-17T05:01:23.215Z,68.70
2022-08-17T05:03:52.919Z,68.00
2022-08-17T05:06:20.412Z,67.80
2022-08-17T05:08:47.485Z,68.30
2022-08-17T05:11:15.128Z,67.50
2022-08-17T05:13:42.602Z,67.40
2022-08-17T05:16:09.751Z,67.40
2022-08-17T05:18:38.867Z,67.20
2022-08-17T05:21:06.765Z,67.00
2022-08-17T05:23:42.777Z,67.30
2022-08-17T05:26:24.758Z,67.20
2022-08-17T05:28:59.425Z,67.00
2022-08-17T05:31:27.842Z,67.40
2022-08-17T05:33:54.681Z,67.60
2022-08-17T05:36:42.823Z,67.80
2022-08-17T05:39:08.998Z,67.40
2022-08-17T05:41:42.745Z,66.90
2022-08-17T05:44:09.867Z,66.60
2022-08-17T05:46:41.665Z,66.80
2022-08-17T05:49:11.200Z,67.00
2022-08-17T05:51:55.968Z,66.40
2022-08-17T05:54:51.666Z,66.80
2022-08-17T05:57:21.341Z,66.50
2022-08-17T05:59:57.549Z,66.50
2022-08-17T06:02:29.427Z,66.40
2022-08-17T06:05:25.873Z,66.50
2022-08-17T06:08:25.479Z,66.30
2022-08-17T06:11:02.624Z,66.00
2022-08-17T06:13:35.248Z,66.30
2022-08-17T06:16:33.740Z,65.80
2022-08-17T06:19:16.020Z,65.90
2022-08-17T06:21:47.623Z,65.50
2022-08-17T06:24:27.483Z,65.50
2022-08-17T06:27:01.533Z,65.50
2022-08-17T06:29:53.304Z,65.40
2022-08-17T06:32:20.534Z,65.30
2022-08-17T06:34:47.861Z,65.20
2022-08-17T06:37:42.476Z,65.50
2022-08-17T06:40:18.547Z,65.60
2022-08-17T06:43:00.902Z,65.40
2022-08-17T06:45:41.783Z,65.60
2022-08-17T06:48:11.743Z,65.50
2022-08-17T06:50:50.991Z,65.70
2022-08-17T06:53:45.574Z,65.70
2022-08-17T06:56:21.795Z,66.20
2022-08-17T06:58:49.558Z,65.90
2022-08-17T07:01:23.023Z,66.00
2022-08-17T07:04:06.410Z,66.30
2022-08-17T07:06:49.169Z,66.40
2022-08-17T07:09:28.232Z,66.30
2022-08-17T07:12:18.493Z,66.10
2022-08-17T07:14:58.336Z,66.30
2022-08-17T07:17:46.692Z,66.70
2022-08-17T07:20:22.638Z,66.50
2022-08-17T07:23:21.868Z,66.50
2022-08-17T07:25:50.090Z,66.30
2022-08-17T07:28:22.938Z,66.40
2022-08-17T07:30:54.385Z,66.60
2022-08-17T07:33:25.735Z,66.40
2022-08-17T07:35:53.206Z,66.30
2022-08-17T07:38:32.149Z,66.30
2022-08-17T07:41:06.151Z,66.40
2022-08-17T07:43:42.349Z,66.20
2022-08-17T07:46:46.673Z,66.10
2022-08-17T07:49:13.574Z,66.00
2022-08-17T07:51:43.747Z,66.40
2022-08-17T07:54:18.469Z,66.70
2022-08-17T07:56:54.633Z,66.40
2022-08-17T07:59:33.413Z,66.50
2022-08-17T08:02:02.303Z,66.40
2022-08-17T08:07:30.368Z,66.40
2022-08-17T08:10:11.773Z,66.50
2022-08-17T08:12:52.754Z,66.20
2022-08-17T08:15:25.657Z,65.90
2022-08-17T08:17:55.687Z,65.50
2022-08-17T08:20:52.985Z,65.10
2022-08-17T08:23:49.552Z,64.20
2022-08-17T08:26:53.960Z,63.60
2022-08-17T08:29:28.120Z,63.50
2022-08-17T08:32:21.909Z,63.50
2022-08-17T08:35:04.456Z,63.50
2022-08-17T08:38:08.573Z,63.00
2022-08-17T08:40:46.349Z,62.90
2022-08-17T08:43:36.239Z,62.90
2022-08-17T08:46:19.614Z,62.40
2022-08-17T08:49:17.501Z,62.30
2022-08-17T08:51:57.825Z,62.40
2022-08-17T08:54:34.423Z,62.20
2022-08-17T08:57:26.725Z,61.90
2022-08-17T09:00:07.708Z,61.70
2022-08-17T09:02:40.805Z,61.40
2022-08-17T09:05:27.106Z,60.90
2022-08-17T09:08:16.400Z,60.80
2022-08-17T09:11:02.804Z,60.70
2022-08-17T09:14:05.507Z,60.70
2022-08-17T09:16:59.921Z,60.60
2022-08-17T09:19:48.708Z,60.90
2022-08-17T09:22:24.100Z,60.90
2022-08-17T09:25:07.126Z,60.70
2022-08-17T09:27:47.982Z,60.30
2022-08-17T09:30:15.417Z,60.10
2022-08-17T09:32:55.300Z,59.80
2022-08-17T09:35:32.911Z,59.30
2022-08-17T09:38:32.326Z,58.80
2022-08-17T09:41:13.148Z,58.70
2022-08-17T09:43:58.145Z,57.10
2022-08-17T09:46:38.788Z,56.90
2022-08-17T09:49:11.771Z,54.40
2022-08-17T09:51:44.971Z,53.30
2022-08-17T09:54:38.725Z,52.80
2022-08-17T09:57:29.077Z,51.70
2022-08-17T10:00:18.849Z,52.00
2022-08-17T10:03:21.105Z,51.80
2022-08-17T10:05:56.271Z,52.00
2022-08-17T10:08:44.948Z,51.40
2022-08-17T10:11:14.800Z,50.70
2022-08-17T10:14:36.063Z,50.80
2022-08-17T10:17:28.138Z,50.60
2022-08-17T10:20:41.776Z,50.10
2022-08-17T10:23:56.737Z,49.80
2022-08-17T10:26:26.223Z,49.50
2022-08-17T10:28:59.330Z,49.80
2022-08-17T10:31:35.106Z,49.90
2022-08-17T10:34:38.862Z,49.60
2022-08-17T10:37:28.686Z,49.80
2022-08-17T10:40:28.184Z,50.00
2022-08-17T10:43:04.935Z,50.20
2022-08-17T10:46:10.556Z,50.70
2022-08-17T10:49:25.892Z,50.50
2022-08-17T10:52:02.036Z,50.60
2022-08-17T10:54:45.633Z,50.80
2022-08-17T10:57:43.700Z,51.00
2022-08-17T11:00:36.018Z,50.80
2022-08-17T11:03:23.559Z,50.20
2022-08-17T11:06:26.166Z,49.90
2022-08-17T11:09:03.209Z,50.40
2022-08-17T11:11:59.963Z,50.40
2022-08-17T11:14:49.189Z,49.50
2022-08-17T11:17:43.920Z,49.10
2022-08-17T11:20:19.805Z,49.20
2022-08-17T11:23:10.116Z,49.20
2022-08-17T11:25:47.149Z,49.10
2022-08-17T11:28:18.039Z,49.10
2022-08-17T11:30:57.400Z,49.00
2022-08-17T11:33:36.716Z,49.10
2022-08-17T11:36:50.689Z,48.80
2022-08-17T11:39:42.179Z,49.10
2022-08-17T11:42:57.537Z,49.40
2022-08-17T11:45:33.792Z,49.10
2022-08-17T11:48:48.448Z,48.60
2022-08-17T11:51:33.723Z,49.40
2022-08-17T11:57:00.563Z,48.20
2022-08-17T11:59:33.251Z,48.20
2022-08-17T12:02:01.870Z,48.20
2022-08-17T12:04:32.148Z,48.40
2022-08-17T12:07:20.517Z,48.50
2022-08-17T12:09:50.865Z,48.00
2022-08-17T12:12:23.332Z,48.00
2022-08-17T12:15:11.800Z,47.70
2022-08-17T12:17:42.662Z,47.20
2022-08-17T12:20:42.624Z,47.00
2022-08-17T12:23:33.876Z,47.20
2022-08-17T12:26:24.049Z,46.80
2022-08-17T12:28:57.436Z,46.90
2022-08-17T12:31:34.374Z,47.00
2022-08-17T12:34:03.322Z,46.70
2022-08-17T12:36:32.380Z,45.70
2022-08-17T12:39:13.682Z,46.20
2022-08-17T12:41:46.851Z,46.40
2022-08-17T12:44:18.518Z,46.50
2022-08-17T12:47:07.551Z,46.30
2022-08-17T12:49:35.844Z,45.60
2022-08-17T12:52:02.699Z,45.60
2022-08-17T12:55:00.288Z,45.90
2022-08-17T12:57:27.404Z,45.40
2022-08-17T13:00:07.604Z,45.40
2022-08-17T13:02:48.714Z,44.70
2022-08-17T13:05:23.758Z,44.90
2022-08-17T13:07:53.119Z,44.50
2022-08-17T13:10:22.728Z,45.20
2022-08-17T13:12:51.085Z,44.50
2022-08-17T13:15:25.320Z,44.20
2022-08-17T13:17:58.225Z,43.70
2022-08-17T13:20:25.690Z,43.90
2022-08-17T13:22:55.998Z,43.80
2022-08-17T13:25:24.053Z,44.10
2022-08-17T13:27:53.135Z,44.00
2022-08-17T13:30:23.792Z,43.50
2022-08-17T13:32:50.858Z,43.60
2022-08-17T13:35:39.548Z,43.90
2022-08-17T13:38:11.872Z,43.40
2022-08-17T13:40:41.731Z,43.90
2022-08-17T13:43:10.325Z,44.30
2022-08-17T13:45:45.524Z,43.90
2022-08-17T13:48:27.712Z,43.60
2022-08-17T13:50:54.604Z,43.80
2022-08-17T13:53:36.138Z,43.50
2022-08-17T13:56:38.579Z,43.40
2022-08-17T13:59:11.185Z,43.60
2022-08-17T14:01:53.349Z,43.10
2022-08-17T14:04:32.678Z,43.30
2022-08-17T14:07:08.933Z,44.00
2022-08-17T14:09:39.901Z,43.80
2022-08-17T14:12:20.103Z,43.10
2022-08-17T14:14:47.479Z,43.10
2022-08-17T14:17:14.510Z,43.10
2022-08-17T14:19:41.746Z,43.10
2022-08-17T14:22:18.829Z,43.10
2022-08-17T14:25:01.070Z,43.10
2022-08-17T14:27:31.754Z,42.40
2022-08-17T14:29:59.085Z,42.50
2022-08-17T14:32:29.188Z,42.50
2022-08-17T14:34:57.707Z,42.30
2022-08-17T14:37:28.014Z,41.90
2022-08-17T14:39:56.965Z,41.70
2022-08-17T14:42:26.324Z,41.90
2022-08-17T14:44:54.733Z,41.90
2022-08-17T14:47:21.789Z,41.80
2022-08-17T14:49:49.289Z,41.80
2022-08-17T14:52:21.724Z,41.80
2022-08-17T14:54:54.003Z,41.70
2022-08-17T14:57:33.587Z,41.60
2022-08-17T15:00:02.323Z,41.10
2022-08-17T15:02:30.848Z,40.90
2022-08-17T15:05:05.980Z,40.90
2022-08-17T15:07:33.221Z,40.90
2022-08-17T15:10:02.442Z,40.70
2022-08-17T15:12:33.545Z,40.60
2022-08-17T15:15:04.450Z,40.30
2022-08-17T15:17:44.412Z,40.40
2022-08-17T15:20:15.817Z,40.20
2022-08-17T15:22:44.973Z,40.00
2022-08-17T15:25:12.558Z,39.70
2022-08-17T15:27:40.379Z,39.50
2022-08-17T15:30:09.840Z,39.20
2022-08-17T15:32:39.257Z,39.30
2022-08-17T15:35:12.224Z,39.00
2022-08-17T15:37:40.267Z,38.80
2022-08-17T15:40:09.087Z,38.60
2022-08-17T15:42:37.330Z,38.60
2022-08-17T15:45:10.736Z,38.20
2022-08-17T15:47:40.877Z,38.60
2022-08-17T15:50:09.648Z,38.50
2022-08-17T15:52:41.975Z,38.70
2022-08-17T15:55:14.665Z,38.40
2022-08-17T15:57:41.702Z,38.30
2022-08-17T16:00:10.143Z,38.40
2022-08-17T16:03:44.795Z,38.20
2022-08-17T16:05:30.138Z,38.20
2022-08-17T16:07:59.673Z,38.40
2022-08-17T16:10:34.831Z,38.60
2022-08-17T16:13:04.280Z,38.80
2022-08-17T16:15:32.115Z,38.40
2022-08-17T16:17:59.536Z,38.70
2022-08-17T16:20:26.961Z,38.70
2022-08-17T16:22:55.065Z,39.10
2022-08-17T16:25:52.392Z,38.50
2022-08-17T16:28:21.856Z,38.70
2022-08-17T16:30:49.055Z,39.60
2022-08-17T16:33:17.005Z,39.20
2022-08-17T16:36:14.116Z,38.90
2022-08-17T16:38:53.389Z,39.20
2022-08-17T16:41:56.392Z,40.00
2022-08-17T16:44:54.899Z,39.30
2022-08-17T16:47:26.554Z,39.80
2022-08-17T16:50:03.637Z,39.60
2022-08-17T16:52:36.598Z,39.60
2022-08-17T16:55:13.128Z,39.60
2022-08-17T16:57:51.209Z,40.10
2022-08-17T17:00:20.943Z,40.10
2022-08-17T17:02:53.818Z,40.10
2022-08-17T17:05:42.466Z,40.10
2022-08-17T17:08:44.861Z,40.10
2022-08-17T17:11:33.640Z,40.30
2022-08-17T17:14:09.204Z,39.70
2022-08-17T17:16:48.747Z,40.40
2022-08-17T17:19:37.233Z,40.90
2022-08-17T17:22:22.809Z,41.30
2022-08-17T17:25:09.476Z,41.30
2022-08-17T17:27:58.903Z,42.00
2022-08-17T17:30:54.005Z,42.50
2022-08-17T17:33:48.848Z,42.30
2022-08-17T17:36:41.023Z,43.10
2022-08-17T17:39:31.876Z,43.30
2022-08-17T17:42:02.773Z,43.70
2022-08-17T17:44:38.168Z,43.60
2022-08-17T17:47:05.876Z,44.10
2022-08-17T17:49:41.572Z,44.30
2022-08-17T17:52:38.640Z,44.50
2022-08-17T17:55:37.548Z,44.70
2022-08-17T17:58:32.077Z,44.90
2022-08-17T18:01:18.057Z,46.00
2022-08-17T18:03:45.289Z,46.50
2022-08-17T18:06:34.418Z,46.00
2022-08-17T18:09:08.757Z,46.10
2022-08-17T18:11:41.394Z,45.70
2022-08-17T18:14:56.084Z,45.90
2022-08-17T18:17:23.661Z,46.00
2022-08-17T18:19:50.554Z,46.40
2022-08-17T18:22:22.456Z,46.20
2022-08-17T18:24:57.349Z,46.40
2022-08-17T18:27:38.089Z,46.60
2022-08-17T18:30:14.072Z,47.10
2022-08-17T18:32:43.723Z,46.80
2022-08-17T18:35:10.630Z,46.90
2022-08-17T18:37:42.726Z,46.70
2022-08-17T18:40:20.070Z,46.80
2022-08-17T18:42:56.620Z,46.90
2022-08-17T18:45:35.825Z,47.20
2022-08-17T18:48:16.782Z,46.70
2022-08-17T18:50:46.142Z,47.10
2022-08-17T18:53:34.088Z,47.00
2022-08-17T18:59:21.153Z,48.40
2022-08-17T19:09:49.464Z,48.50
2022-08-17T19:12:53.542Z,48.70
2022-08-17T19:15:39.520Z,48.60
2022-08-17T19:18:58.225Z,49.00
2022-08-17T19:21:36.897Z,49.20
2022-08-17T19:24:31.939Z,49.00
2022-08-17T19:27:15.570Z,49.40
2022-08-17T19:29:53.808Z,48.90
2022-08-17T19:32:24.954Z,48.70
2022-08-17T19:34:52.327Z,48.70
2022-08-17T19:38:02.787Z,48.70
2022-08-17T19:40:53.228Z,49.00
2022-08-17T19:43:39.863Z,49.80
2022-08-17T19:46:19.214Z,49.90
2022-08-17T19:48:52.200Z,49.70
2022-08-17T19:51:36.146Z,49.50
2022-08-17T19:54:18.404Z,49.50
2022-08-17T19:57:14.501Z,50.40
2022-08-17T20:00:22.023Z,50.30
2022-08-17T20:03:06.682Z,50.70
2022-08-17T20:06:12.131Z,50.60
2022-08-17T20:08:52.116Z,50.20
2022-08-17T20:11:26.274Z,51.00
2022-08-17T20:14:13.056Z,51.10
2022-08-17T20:16:40.468Z,51.50
2022-08-17T20:19:10.423Z,51.50
2022-08-17T20:21:58.197Z,51.40
2022-08-17T20:24:48.442Z,51.40
2022-08-17T20:27:21.593Z,51.40
2022-08-17T20:30:06.048Z,51.50
2022-08-17T20:32:55.963Z,51.70
2022-08-17T20:35:38.124Z,52.00
2022-08-17T20:38:33.719Z,52.00
2022-08-17T20:41:01.409Z,52.10
2022-08-17T20:43:59.024Z,52.10
2022-08-17T20:46:56.790Z,52.10
2022-08-17T20:49:33.916Z,52.20
2022-08-17T20:52:13.661Z,52.20
2022-08-17T20:54:48.292Z,52.40
2022-08-17T20:57:36.496Z,52.60
2022-08-17T21:00:33.248Z,52.80
2022-08-17T21:03:22.020Z,52.90
2022-08-17T21:06:02.994Z,53.00
2022-08-17T21:09:16.632Z,53.30
2022-08-17T21:12:03.876Z,54.00
2022-08-17T21:14:39.102Z,53.70
2022-08-17T21:17:24.912Z,53.60
2022-08-17T21:20:25.574Z,53.70
2022-08-17T21:22:59.047Z,52.90
2022-08-17T21:26:09.592Z,53.10
2022-08-17T21:29:32.420Z,53.30
2022-08-17T21:32:03.632Z,53.70
2022-08-17T21:34:33.021Z,54.00
2022-08-17T21:37:18.815Z,53.80
2022-08-17T21:40:23.095Z,53.80
2022-08-17T21:42:55.101Z,53.70
2022-08-17T21:45:38.059Z,54.00
2022-08-17T21:48:13.936Z,54.10
2022-08-17T21:50:43.841Z,54.10
2022-08-17T21:53:43.577Z,54.30
2022-08-17T21:56:19.511Z,54.10
2022-08-17T21:58:54.549Z,54.40
2022-08-17T22:01:30.629Z,54.80
2022-08-17T22:04:16.820Z,54.80
2022-08-17T22:06:55.830Z,55.00
2022-08-17T22:09:32.975Z,54.90
2022-08-17T22:12:02.439Z,54.90
2022-08-17T22:14:52.913Z,54.90
2022-08-17T22:18:10.574Z,54.90
2022-08-17T22:20:42.022Z,54.90
2022-08-17T22:23:32.390Z,55.10
2022-08-17T22:26:09.704Z,55.10
2022-08-17T22:28:59.382Z,55.00
2022-08-17T22:31:30.004Z,55.30
2022-08-17T22:33:59.952Z,55.30
2022-08-17T22:36:38.807Z,55.30
2022-08-17T22:39:09.158Z,55.50
2022-08-17T22:41:49.406Z,55.50
2022-08-17T22:44:19.761Z,55.40
2022-08-17T22:47:14.537Z,55.50
2022-08-17T22:49:57.811Z,55.60
2022-08-17T22:53:00.675Z,55.80
2022-08-17T22:55:50.223Z,55.80
2022-08-17T22:58:40.553Z,55.90
2022-08-17T23:01:39.192Z,56.10
2022-08-17T23:04:30.974Z,56.10
2022-08-17T23:06:57.932Z,56.30
2022-08-17T23:09:24.807Z,56.10
2022-08-17T23:11:58.680Z,56.40
2022-08-17T23:14:31.642Z,56.60
2022-08-17T23:16:59.525Z,56.80
2022-08-17T23:19:28.056Z,56.60
2022-08-17T23:21:56.657Z,56.90
2022-08-17T23:24:27.264Z,57.20
2022-08-17T23:26:57.352Z,56.90
2022-08-17T23:29:26.533Z,56.90
2022-08-17T23:31:53.672Z,57.10
2022-08-17T23:34:20.962Z,56.90
2022-08-17T23:36:52.940Z,56.90
2022-08-17T23:39:27.767Z,56.90
2022-08-17T23:42:00.445Z,56.90
2022-08-17T23:44:28.840Z,57.10
2022-08-17T23:46:56.044Z,57.00
2022-08-17T23:49:25.238Z,57.00
2022-08-17T23:51:54.727Z,56.90
2022-08-17T23:54:48.681Z,56.80
2022-08-17T23:57:19.793Z,56.90
